createdAt,value
2023-01-10T00:02:41.949Z,97909.60
2023-01-10T00:05:39.672Z,97911.00
2023-01-10T00:08:37.343Z,97919.80
2023-01-10T00:11:52.828Z,97921.20
2023-01-10T00:14:50.602Z,97921.00
2023-01-10T00:17:48.061Z,97926.00
2023-01-10T00:20:46.411Z,97927.40
2023-01-10T00:23:44.295Z,97927.20
2023-01-10T00:26:44.506Z,97934.00
2023-01-10T00:29:42.408Z,97923.60
2023-01-10T00:32:39.860Z,97931.00
2023-01-10T00:35:37.596Z,97930.40
2023-01-10T00:38:35.096Z,97934.20
2023-01-10T00:41:55.903Z,97940.60
2023-01-10T00:44:53.463Z,97946.60
2023-01-10T00:47:51.351Z,97949.60
2023-01-10T00:50:48.776Z,97957.00
2023-01-10T00:53:46.767Z,97954.00
2023-01-10T00:56:44.225Z,97963.20
2023-01-10T00:59:42.093Z,97973.20
2023-01-10T01:02:39.935Z,97981.80
2023-01-10T01:05:37.944Z,97984.00
2023-01-10T01:08:35.639Z,97993.80
2023-01-10T01:11:33.052Z,97999.40
2023-01-10T01:14:30.701Z,98006.60
2023-01-10T01:17:28.154Z,98018.80
2023-01-10T01:20:25.954Z,98025.40
2023-01-10T01:23:23.391Z,98024.60
2023-01-10T01:26:21.283Z,98024.00
2023-01-10T01:29:18.714Z,98035.20
2023-01-10T01:32:16.500Z,98026.60
2023-01-10T01:35:14.464Z,98030.00
2023-01-10T01:38:11.925Z,98037.60
2023-01-10T01:41:29.523Z,98031.20
2023-01-10T01:44:26.952Z,98038.00
2023-01-10T01:47:25.524Z,98036.40
2023-01-10T01:50:22.946Z,98033.40
2023-01-10T01:53:21.256Z,98039.20
2023-01-10T01:56:18.895Z,98039.60
2023-01-10T01:59:16.322Z,98036.40
2023-01-10T02:02:14.640Z,98041.20
2023-01-10T02:05:12.158Z,98043.80
2023-01-10T02:08:09.803Z,98048.40
2023-01-10T02:11:08.595Z,98052.80
2023-01-10T02:14:06.186Z,98055.40
2023-01-10T02:17:04.321Z,98052.60
2023-01-10T02:20:01.840Z,98056.40
2023-01-10T02:23:00.055Z,98056.60
2023-01-10T02:25:57.506Z,98062.80
2023-01-10T02:28:55.280Z,98069.40
2023-01-10T02:31:52.740Z,98073.80
2023-01-10T02:34:50.505Z,98069.60
2023-01-10T02:37:48.116Z,98074.20
2023-01-10T02:40:45.822Z,98076.80
2023-01-10T02:43:43.241Z,98088.20
2023-01-10T02:46:41.132Z,98079.20
2023-01-10T02:49:38.843Z,98085.60
2023-01-10T02:52:36.287Z,98086.60
2023-01-10T02:55:33.914Z,98092.20
2023-01-10T02:58:31.358Z,98089.40
2023-01-10T03:01:29.047Z,98093.40
2023-01-10T03:04:26.957Z,98103.20
2023-01-10T03:07:24.727Z,98102.00
2023-01-10T03:10:22.441Z,98109.40
2023-01-10T03:13:19.868Z,98114.60
2023-01-10T03:16:17.582Z,98110.60
2023-01-10T03:19:15.043Z,98121.40
2023-01-10T03:22:12.840Z,98123.60
2023-01-10T03:25:10.280Z,98117.40
2023-01-10T03:28:07.976Z,98119.00
2023-01-10T03:31:05.457Z,98124.00
2023-01-10T03:34:03.298Z,98136.60
2023-01-10T03:37:00.988Z,98144.40
2023-01-10T03:39:58.408Z,98137.40
2023-01-10T03:43:13.788Z,98149.40
2023-01-10T03:46:11.326Z,98148.00
2023-01-10T03:49:09.076Z,98152.00
2023-01-10T03:52:06.800Z,98161.60
2023-01-10T03:55:05.488Z,98161.60
2023-01-10T03:58:03.107Z,98169.20
2023-01-10T04:01:00.745Z,98177.80
2023-01-10T04:03:58.612Z,98178.80
2023-01-10T04:06:56.098Z,98187.40
2023-01-10T04:09:53.793Z,98188.60
2023-01-10T04:12:51.217Z,98199.80
2023-01-10T04:15:48.931Z,98204.40
2023-01-10T04:18:46.352Z,98210.80
2023-01-10T04:21:44.028Z,98211.00
2023-01-10T04:24:41.478Z,98213.20
2023-01-10T04:27:39.156Z,98220.60
2023-01-10T04:30:36.865Z,98219.80
2023-01-10T04:33:34.310Z,98226.40
2023-01-10T04:36:31.923Z,98220.20
2023-01-10T04:39:29.352Z,98226.40
2023-01-10T04:42:27.092Z,98236.20
2023-01-10T04:45:24.611Z,98238.20
2023-01-10T04:48:22.271Z,98246.80
2023-01-10T04:51:19.711Z,98251.80
2023-01-10T04:54:17.315Z,98252.40
2023-01-10T04:57:14.744Z,98260.00
2023-01-10T05:00:13.696Z,98261.60
2023-01-10T05:03:11.206Z,98275.20
2023-01-10T05:06:08.918Z,98273.80
2023-01-10T05:09:06.521Z,98283.80
2023-01-10T05:12:03.961Z,98282.20
2023-01-10T05:15:02.206Z,98290.00
2023-01-10T05:17:59.727Z,98297.00
2023-01-10T05:20:57.549Z,98306.60
2023-01-10T05:23:54.983Z,98305.40
2023-01-10T05:26:52.773Z,98316.80
2023-01-10T05:29:50.192Z,98322.80
2023-01-10T05:32:47.894Z,98318.00
2023-01-10T05:35:45.329Z,98321.40
2023-01-10T05:38:43.021Z,98322.40
2023-01-10T05:41:40.615Z,98323.20
2023-01-10T05:44:38.244Z,98328.60
2023-01-10T05:47:35.691Z,98333.80
2023-01-10T05:50:33.501Z,98331.40
2023-01-10T05:53:30.929Z,98339.20
2023-01-10T05:56:29.628Z,98343.40
2023-01-10T05:59:28.640Z,98348.00
2023-01-10T06:02:26.841Z,98345.00
2023-01-10T06:05:24.476Z,98348.00
2023-01-10T06:08:22.531Z,98351.40
2023-01-10T06:11:19.962Z,98357.60
2023-01-10T06:14:19.708Z,98372.00
2023-01-10T06:17:17.137Z,98377.20
2023-01-10T06:20:14.932Z,98381.40
2023-01-10T06:23:12.396Z,98390.80
2023-01-10T06:26:10.156Z,98404.20
2023-01-10T06:29:07.614Z,98408.20
2023-01-10T06:32:05.335Z,98418.20
2023-01-10T06:35:02.891Z,98425.20
2023-01-10T06:38:00.909Z,98423.40
2023-01-10T06:40:58.364Z,98427.00
2023-01-10T06:43:56.021Z,98437.40
2023-01-10T06:46:53.472Z,98443.20
2023-01-10T06:49:51.284Z,98458.00
2023-01-10T06:52:48.714Z,98455.60
2023-01-10T06:55:46.469Z,98460.20
2023-01-10T06:58:43.921Z,98463.20
2023-01-10T07:01:41.747Z,98463.60
2023-01-10T07:04:39.191Z,98481.00
2023-01-10T07:07:36.966Z,98486.40
2023-01-10T07:10:34.825Z,98491.20
2023-01-10T07:13:32.271Z,98498.40
2023-01-10T07:16:30.092Z,98502.60
2023-01-10T07:19:27.624Z,98499.00
2023-01-10T07:22:25.386Z,98500.60
2023-01-10T07:25:22.812Z,98512.20
2023-01-10T07:28:20.509Z,98512.00
2023-01-10T07:31:17.997Z,98515.60
2023-01-10T07:34:16.461Z,98522.80
2023-01-10T07:37:13.912Z,98531.80
2023-01-10T07:40:11.695Z,98539.60
2023-01-10T07:43:09.135Z,98535.00
2023-01-10T07:46:08.561Z,98545.60
2023-01-10T07:49:05.989Z,98543.00
2023-01-10T07:52:03.782Z,98548.00
2023-01-10T07:55:01.216Z,98563.00
2023-01-10T07:58:00.132Z,98561.40
2023-01-10T08:00:57.644Z,98567.00
2023-01-10T08:03:55.488Z,98570.80
2023-01-10T08:06:52.913Z,98576.80
2023-01-10T08:09:50.609Z,98587.80
2023-01-10T08:12:48.374Z,98598.20
2023-01-10T08:15:47.705Z,98607.80
2023-01-10T08:18:45.169Z,98620.00
2023-01-10T08:21:42.873Z,98615.80
2023-01-10T08:24:40.304Z,98631.40
2023-01-10T08:27:38.010Z,98628.40
2023-01-10T08:30:35.644Z,98635.00
2023-01-10T08:33:33.136Z,98645.00
2023-01-10T08:36:31.117Z,98654.20
2023-01-10T08:39:28.551Z,98659.00
2023-01-10T08:42:26.520Z,98661.20
2023-01-10T08:45:23.945Z,98663.80
2023-01-10T08:48:21.662Z,98675.00
2023-01-10T08:51:19.139Z,98684.20
2023-01-10T08:54:16.784Z,98687.80
2023-01-10T08:57:14.234Z,98694.40
2023-01-10T09:00:12.539Z,98702.20
2023-01-10T09:03:10.371Z,98705.60
2023-01-10T09:06:08.510Z,98702.60
2023-01-10T09:09:06.548Z,98712.20
2023-01-10T09:12:23.968Z,98722.20
2023-01-10T09:15:22.038Z,98725.40
2023-01-10T09:18:21.335Z,98725.60
2023-01-10T09:21:19.803Z,98727.60
2023-01-10T09:24:17.258Z,98727.40
2023-01-10T09:27:14.852Z,98736.00
2023-01-10T09:30:12.309Z,98746.00
2023-01-10T09:33:10.170Z,98753.80
2023-01-10T09:36:10.276Z,98762.80
2023-01-10T09:39:07.787Z,98763.00
2023-01-10T09:42:05.544Z,98768.20
2023-01-10T09:45:02.972Z,98779.80
2023-01-10T09:48:00.727Z,98785.80
2023-01-10T09:50:58.164Z,98779.80
2023-01-10T09:54:06.630Z,98769.40
2023-01-10T09:57:07.976Z,98780.80
2023-01-10T10:00:05.732Z,98779.00
2023-01-10T10:03:03.634Z,98782.40
2023-01-10T10:06:11.518Z,98791.00
2023-01-10T10:09:09.896Z,98792.00
2023-01-10T10:12:07.323Z,98795.20
2023-01-10T10:15:05.637Z,98801.20
2023-01-10T10:18:03.311Z,98806.60
2023-01-10T10:21:00.746Z,98804.60
2023-01-10T10:23:58.523Z,98805.00
2023-01-10T10:26:55.984Z,98806.20
2023-01-10T10:29:53.774Z,98813.40
2023-01-10T10:32:51.835Z,98807.60
2023-01-10T10:35:49.603Z,98805.80
2023-01-10T10:38:47.345Z,98802.40
2023-01-10T10:41:44.796Z,98805.80
2023-01-10T10:44:42.505Z,98810.20
2023-01-10T10:47:39.948Z,98811.80
2023-01-10T10:50:38.221Z,98816.40
2023-01-10T10:53:35.948Z,98823.20
2023-01-10T10:56:33.393Z,98819.20
2023-01-10T10:59:31.120Z,98827.20
2023-01-10T11:02:28.546Z,98817.80
2023-01-10T11:05:26.332Z,98817.20
2023-01-10T11:08:24.176Z,98824.80
2023-01-10T11:11:21.862Z,98824.00
2023-01-10T11:14:19.842Z,98825.00
2023-01-10T11:17:17.307Z,98828.40
2023-01-10T11:20:14.974Z,98827.80
2023-01-10T11:23:12.413Z,98834.80
2023-01-10T11:26:10.117Z,98844.20
2023-01-10T11:29:07.627Z,98853.40
2023-01-10T11:32:06.013Z,98850.80
2023-01-10T11:35:03.510Z,98852.80
2023-01-10T11:38:01.885Z,98848.20
2023-01-10T11:41:00.643Z,98852.00
2023-01-10T11:43:58.062Z,98852.80
2023-01-10T11:46:55.681Z,98854.60
2023-01-10T11:49:53.215Z,98861.20
2023-01-10T11:52:50.883Z,98866.20
2023-01-10T11:55:48.321Z,98873.20
2023-01-10T11:58:46.055Z,98860.60
2023-01-10T12:01:43.736Z,98857.00
2023-01-10T12:04:41.761Z,98858.40
2023-01-10T12:07:39.461Z,98856.80
2023-01-10T12:10:36.873Z,98858.80
2023-01-10T12:13:34.577Z,98857.60
2023-01-10T12:16:32.063Z,98862.80
2023-01-10T12:19:29.712Z,98864.60
2023-01-10T12:22:27.686Z,98870.80
2023-01-10T12:25:25.156Z,98875.60
2023-01-10T12:28:22.739Z,98872.60
2023-01-10T12:31:20.488Z,98880.80
2023-01-10T12:34:20.617Z,98880.00
2023-01-10T12:37:18.060Z,98889.80
2023-01-10T12:40:15.708Z,98886.20
2023-01-10T12:43:31.414Z,98897.20
2023-01-10T12:47:00.191Z,98903.60
2023-01-10T12:49:46.504Z,98899.60
2023-01-10T12:52:46.116Z,98899.20
2023-01-10T12:55:43.525Z,98901.60
2023-01-10T12:58:43.275Z,98895.20
2023-01-10T13:01:42.499Z,98897.00
2023-01-10T13:04:41.685Z,98909.00
2023-01-10T13:07:39.103Z,98915.00
2023-01-10T13:10:36.907Z,98916.20
2023-01-10T13:13:35.207Z,98923.40
2023-01-10T13:16:32.714Z,98930.40
2023-01-10T13:19:30.421Z,98941.40
2023-01-10T13:22:27.867Z,98935.00
2023-01-10T13:25:25.654Z,98933.60
2023-01-10T13:28:23.410Z,98931.00
2023-01-10T13:31:20.863Z,98949.00
2023-01-10T13:34:18.690Z,98951.40
2023-01-10T13:37:16.132Z,98960.40
2023-01-10T13:40:13.737Z,98962.20
2023-01-10T13:43:20.179Z,98971.20
2023-01-10T13:46:17.860Z,98969.60
2023-01-10T13:49:15.349Z,98975.20
2023-01-10T13:52:13.061Z,98973.80
2023-01-10T13:55:10.471Z,98982.20
2023-01-10T13:58:08.270Z,98983.80
2023-01-10T14:01:23.689Z,98990.20
2023-01-10T14:04:21.322Z,98997.40
2023-01-10T14:07:19.072Z,99008.40
2023-01-10T14:10:16.503Z,99011.40
2023-01-10T14:13:14.162Z,99014.20
2023-01-10T14:16:11.625Z,99011.40
2023-01-10T14:19:09.549Z,99021.00
2023-01-10T14:22:06.998Z,99019.40
2023-01-10T14:25:04.752Z,99030.20
2023-01-10T14:28:02.421Z,99030.60
2023-01-10T14:30:59.873Z,99031.00
2023-01-10T14:33:57.641Z,99029.80
2023-01-10T14:36:55.101Z,99031.40
2023-01-10T14:39:56.358Z,99038.00
2023-01-10T14:42:56.049Z,99036.80
2023-01-10T14:45:53.477Z,99049.20
2023-01-10T14:48:51.855Z,99048.20
2023-01-10T14:51:50.734Z,99055.60
2023-01-10T14:54:48.440Z,99050.60
2023-01-10T14:57:45.894Z,99068.40
2023-01-10T15:00:43.692Z,99071.20
2023-01-10T15:03:41.120Z,99076.60
2023-01-10T15:06:38.756Z,99085.40
2023-01-10T15:09:36.223Z,99080.80
2023-01-10T15:12:33.690Z,99081.80
2023-01-10T15:15:31.435Z,99097.60
2023-01-10T15:18:29.123Z,99100.40
2023-01-10T15:21:27.071Z,99114.60
2023-01-10T15:24:24.954Z,99127.40
2023-01-10T15:27:22.417Z,99123.40
2023-01-10T15:30:20.127Z,99126.00
2023-01-10T15:33:17.561Z,99138.80
2023-01-10T15:36:15.205Z,99137.60
2023-01-10T15:39:12.852Z,99147.80
2023-01-10T15:42:10.725Z,99163.20
2023-01-10T15:45:08.179Z,99173.20
2023-01-10T15:48:06.299Z,99163.00
2023-01-10T15:51:06.277Z,99163.00
2023-01-10T15:54:07.609Z,99164.80
2023-01-10T15:57:07.013Z,99178.00
2023-01-10T16:00:04.451Z,99182.20
2023-01-10T16:03:02.510Z,99182.40
2023-01-10T16:05:59.990Z,99183.80
2023-01-10T16:08:57.769Z,99173.80
2023-01-10T16:12:13.169Z,99179.20
2023-01-10T16:15:10.650Z,99186.60
2023-01-10T16:18:08.489Z,99185.80
2023-01-10T16:21:05.943Z,99184.40
2023-01-10T16:24:03.690Z,99189.80
2023-01-10T16:27:03.180Z,99194.60
2023-01-10T16:30:00.977Z,99188.80
2023-01-10T16:32:59.217Z,99187.00
2023-01-10T16:35:56.677Z,99186.40
2023-01-10T16:38:54.387Z,99195.20
2023-01-10T16:42:09.747Z,99199.60
2023-01-10T16:45:07.415Z,99203.60
2023-01-10T16:48:04.853Z,99202.60
2023-01-10T16:51:02.771Z,99205.80
2023-01-10T16:54:00.372Z,99205.80
2023-01-10T16:56:57.813Z,99213.20
2023-01-10T16:59:55.643Z,99217.40
2023-01-10T17:02:53.109Z,99223.60
2023-01-10T17:05:51.292Z,99226.60
2023-01-10T17:08:49.688Z,99233.80
2023-01-10T17:11:47.564Z,99233.00
2023-01-10T17:14:44.996Z,99235.80
2023-01-10T17:17:45.425Z,99235.40
2023-01-10T17:20:42.895Z,99245.40
2023-01-10T17:23:42.187Z,99241.00
2023-01-10T17:26:39.967Z,99253.20
2023-01-10T17:29:37.423Z,99256.80
2023-01-10T17:32:35.311Z,99258.60
2023-01-10T17:35:33.199Z,99262.80
2023-01-10T17:38:31.000Z,99269.20
2023-01-10T17:41:28.479Z,99272.00
2023-01-10T17:44:26.242Z,99279.40
2023-01-10T17:47:23.691Z,99276.60
2023-01-10T17:50:21.420Z,99293.40
2023-01-10T17:53:19.467Z,99292.80
2023-01-10T17:56:16.902Z,99302.40
2023-01-10T17:59:14.507Z,99302.40
2023-01-10T18:02:12.076Z,99298.40
2023-01-10T18:05:10.163Z,99302.00
2023-01-10T18:08:08.238Z,99303.80
2023-01-10T18:11:06.274Z,99296.60
2023-01-10T18:14:24.056Z,99309.80
2023-01-10T18:17:21.590Z,99313.80
2023-01-10T18:20:21.450Z,99324.60
2023-01-10T18:23:26.137Z,99329.20
2023-01-10T18:26:24.455Z,99325.60
2023-01-10T18:29:22.184Z,99322.40
2023-01-10T18:32:19.933Z,99329.00
2023-01-10T18:35:17.394Z,99333.20
2023-01-10T18:38:15.907Z,99344.40
2023-01-10T18:41:16.049Z,99342.40
2023-01-10T18:44:14.791Z,99344.40
2023-01-10T18:47:12.756Z,99343.20
2023-01-10T18:50:13.089Z,99347.20
2023-01-10T18:53:11.513Z,99344.00
2023-01-10T18:56:09.374Z,99340.60
2023-01-10T18:59:07.722Z,99342.80
2023-01-10T19:02:06.021Z,99335.80
2023-01-10T19:05:08.638Z,99340.80
2023-01-10T19:08:06.157Z,99342.40
2023-01-10T19:11:13.555Z,99339.60
2023-01-10T19:14:12.802Z,99345.40
2023-01-10T19:17:11.625Z,99354.40
2023-01-10T19:20:11.036Z,99358.20
2023-01-10T19:23:09.601Z,99354.00
2023-01-10T19:26:07.057Z,99361.20
2023-01-10T19:29:07.086Z,99357.00
2023-01-10T19:32:05.469Z,99362.80
2023-01-10T19:35:04.579Z,99364.20
2023-01-10T19:38:02.637Z,99362.60
2023-01-10T19:41:00.996Z,99368.00
2023-01-10T19:44:00.649Z,99373.20
2023-01-10T19:46:58.763Z,99378.40
2023-01-10T19:49:57.415Z,99386.80
2023-01-10T19:52:56.345Z,99382.60
2023-01-10T19:55:55.300Z,99381.80
2023-01-10T19:58:54.113Z,99384.20
2023-01-10T20:01:52.556Z,99392.40
2023-01-10T20:04:50.591Z,99399.80
2023-01-10T20:07:48.863Z,99397.80
2023-01-10T20:10:47.939Z,99388.60
2023-01-10T20:13:46.830Z,99398.80
2023-01-10T20:16:45.674Z,99386.80
2023-01-10T20:19:44.921Z,99380.20
2023-01-10T20:22:46.298Z,99385.40
2023-01-10T20:25:47.977Z,99376.20
2023-01-10T20:28:46.543Z,99375.00
2023-01-10T20:31:48.275Z,99377.20
2023-01-10T20:34:48.001Z,99377.40
2023-01-10T20:37:45.465Z,99388.60
2023-01-10T20:40:43.764Z,99386.40
2023-01-10T20:43:41.613Z,99383.20
2023-01-10T20:46:40.299Z,99384.80
2023-01-10T20:49:37.747Z,99383.20
2023-01-10T20:52:35.737Z,99382.20
2023-01-10T20:55:33.180Z,99391.20
2023-01-10T20:58:31.148Z,99391.60
2023-01-10T21:01:34.473Z,99384.60
2023-01-10T21:04:33.520Z,99391.20
2023-01-10T21:07:30.947Z,99389.40
2023-01-10T21:10:28.770Z,99385.40
2023-01-10T21:13:26.397Z,99393.20
2023-01-10T21:16:25.570Z,99394.60
2023-01-10T21:19:23.203Z,99389.20
2023-01-10T21:22:21.058Z,99384.80
2023-01-10T21:25:18.482Z,99384.00
2023-01-10T21:28:16.301Z,99371.00
2023-01-10T21:31:14.161Z,99376.40
2023-01-10T21:34:12.747Z,99378.60
2023-01-10T21:37:11.414Z,99368.20
2023-01-10T21:40:09.858Z,99372.00
2023-01-10T21:43:09.482Z,99369.60
2023-01-10T21:46:09.370Z,99370.40
2023-01-10T21:49:07.494Z,99370.80
2023-01-10T21:52:06.235Z,99370.80
2023-01-10T21:55:04.279Z,99378.00
2023-01-10T21:58:03.329Z,99370.00
2023-01-10T22:01:01.510Z,99371.60
2023-01-10T22:04:00.328Z,99368.60
2023-01-10T22:06:58.630Z,99368.60
2023-01-10T22:09:58.766Z,99370.20
2023-01-10T22:12:56.883Z,99373.40
2023-01-10T22:15:54.950Z,99378.80
2023-01-10T22:18:52.949Z,99369.20
2023-01-10T22:21:50.391Z,99371.20
2023-01-10T22:24:48.514Z,99368.40
2023-01-10T22:27:45.957Z,99368.00
2023-01-10T22:30:43.820Z,99366.40
2023-01-10T22:33:42.869Z,99361.00
2023-01-10T22:36:40.926Z,99359.20
2023-01-10T22:39:38.873Z,99361.60
2023-01-10T22:42:36.309Z,99358.80
2023-01-10T22:45:34.344Z,99359.40
2023-01-10T22:48:31.809Z,99361.40
2023-01-10T22:51:31.352Z,99366.80
2023-01-10T22:54:28.789Z,99371.00
2023-01-10T22:57:28.771Z,99371.80
2023-01-10T23:00:26.360Z,99375.00
2023-01-10T23:03:24.076Z,99375.80
2023-01-10T23:06:21.520Z,99375.20
2023-01-10T23:09:19.017Z,99379.60
2023-01-10T23:12:17.423Z,99377.20
2023-01-10T23:15:14.913Z,99369.20
2023-01-10T23:18:12.709Z,99370.40
2023-01-10T23:21:10.082Z,99373.40
2023-01-10T23:24:08.001Z,99375.40
2023-01-10T23:27:05.383Z,99378.60
2023-01-10T23:30:03.127Z,99375.20
2023-01-10T23:33:00.480Z,99377.20
2023-01-10T23:35:58.262Z,99378.00
2023-01-10T23:38:55.673Z,99376.20
2023-01-10T23:41:53.576Z,99374.40
2023-01-10T23:44:50.959Z,99376.20
2023-01-10T23:47:49.046Z,99372.40
2023-01-10T23:50:46.420Z,99367.00
2023-01-10T23:53:44.320Z,99365.20
2023-01-10T23:56:41.681Z,99369.60
2023-01-10T23:59:39.555Z,99366.20
